sensor_id;sensor_type;location;lat;lon;timestamp;P1;durP1;ratioP1;P2;durP2;ratioP2
56960;SDS011;42857;49.768;22.716;2022-10-16T00:01:11;21.50;;;12.32;;
56960;SDS011;42857;49.768;22.716;2022-10-16T00:03:37;21.98;;;11.95;;
56960;SDS011;42857;49.768;22.716;2022-10-16T00:06:04;18.15;;;11.55;;
56960;SDS011;42857;49.768;22.716;2022-10-16T00:08:31;20.30;;;11.25;;
56960;SDS011;42857;49.768;22.716;2022-10-16T00:11:04;16.65;;;10.63;;
56960;SDS011;42857;49.768;22.716;2022-10-16T00:13:31;18.83;;;10.40;;
56960;SDS011;42857;49.768;22.716;2022-10-16T00:15:57;17.38;;;11.10;;
56960;SDS011;42857;49.768;22.716;2022-10-16T00:18:24;19.83;;;11.10;;
56960;SDS011;42857;49.768;22.716;2022-10-16T00:20:50;18.77;;;11.07;;
56960;SDS011;42857;49.768;22.716;2022-10-16T00:23:17;17.00;;;10.82;;
56960;SDS011;42857;49.768;22.716;2022-10-16T00:25:43;18.92;;;11.23;;
56960;SDS011;42857;49.768;22.716;2022-10-16T00:28:09;17.00;;;11.18;;
56960;SDS011;42857;49.768;22.716;2022-10-16T00:30:37;19.23;;;11.27;;
56960;SDS011;42857;49.768;22.716;2022-10-16T00:33:03;17.55;;;10.10;;
56960;SDS011;42857;49.768;22.716;2022-10-16T00:35:30;18.38;;;10.40;;
56960;SDS011;42857;49.768;22.716;2022-10-16T00:37:56;18.05;;;11.07;;
56960;SDS011;42857;49.768;22.716;2022-10-16T00:40:22;16.60;;;10.63;;
56960;SDS011;42857;49.768;22.716;2022-10-16T00:42:48;20.30;;;11.80;;
56960;SDS011;42857;49.768;22.716;2022-10-16T00:45:14;22.33;;;11.65;;
56960;SDS011;42857;49.768;22.716;2022-10-16T00:47:40;29.15;;;11.45;;
56960;SDS011;42857;49.768;22.716;2022-10-16T00:50:31;21.58;;;11.68;;
56960;SDS011;42857;49.768;22.716;2022-10-16T00:52:56;17.58;;;10.02;;
56960;SDS011;42857;49.768;22.716;2022-10-16T00:55:22;17.15;;;10.32;;
56960;SDS011;42857;49.768;22.716;2022-10-16T00:57:49;18.33;;;11.18;;
56960;SDS011;42857;49.768;22.716;2022-10-16T01:00:19;17.23;;;9.75;;
56960;SDS011;42857;49.768;22.716;2022-10-16T01:02:53;16.25;;;10.18;;
56960;SDS011;42857;49.768;22.716;2022-10-16T01:05:20;16.55;;;10.73;;
56960;SDS011;42857;49.768;22.716;2022-10-16T01:12:56;17.20;;;11.02;;
56960;SDS011;42857;49.768;22.716;2022-10-16T01:18:07;16.45;;;9.80;;
56960;SDS011;42857;49.768;22.716;2022-10-16T01:20:39;16.80;;;9.73;;
56960;SDS011;42857;49.768;22.716;2022-10-16T01:23:28;14.10;;;9.88;;
56960;SDS011;42857;49.768;22.716;2022-10-16T01:28:36;22.23;;;10.07;;
56960;SDS011;42857;49.768;22.716;2022-10-16T01:31:04;16.02;;;10.55;;
56960;SDS011;42857;49.768;22.716;2022-10-16T01:33:45;19.95;;;10.35;;
56960;SDS011;42857;49.768;22.716;2022-10-16T01:36:13;16.63;;;11.02;;
56960;SDS011;42857;49.768;22.716;2022-10-16T01:38:40;19.42;;;10.80;;
56960;SDS011;42857;49.768;22.716;2022-10-16T01:41:14;17.70;;;10.70;;
56960;SDS011;42857;49.768;22.716;2022-10-16T01:43:46;15.27;;;10.13;;
56960;SDS011;42857;49.768;22.716;2022-10-16T01:46:14;18.88;;;9.35;;
56960;SDS011;42857;49.768;22.716;2022-10-16T01:48:42;13.15;;;9.52;;
56960;SDS011;42857;49.768;22.716;2022-10-16T01:51:09;15.70;;;11.05;;
56960;SDS011;42857;49.768;22.716;2022-10-16T01:53:36;15.50;;;10.20;;
56960;SDS011;42857;49.768;22.716;2022-10-16T01:56:03;22.02;;;11.68;;
56960;SDS011;42857;49.768;22.716;2022-10-16T01:58:31;19.02;;;11.57;;
56960;SDS011;42857;49.768;22.716;2022-10-16T02:00:59;23.02;;;12.00;;
56960;SDS011;42857;49.768;22.716;2022-10-16T02:03:25;17.40;;;12.60;;
56960;SDS011;42857;49.768;22.716;2022-10-16T02:05:52;19.77;;;12.38;;
56960;SDS011;42857;49.768;22.716;2022-10-16T02:08:19;20.02;;;11.45;;
56960;SDS011;42857;49.768;22.716;2022-10-16T02:10:46;19.52;;;12.25;;
56960;SDS011;42857;49.768;22.716;2022-10-16T02:13:23;22.70;;;13.18;;
56960;SDS011;42857;49.768;22.716;2022-10-16T02:15:49;22.30;;;13.85;;
56960;SDS011;42857;49.768;22.716;2022-10-16T02:18:15;21.00;;;14.07;;
56960;SDS011;42857;49.768;22.716;2022-10-16T02:20:52;22.67;;;13.75;;
56960;SDS011;42857;49.768;22.716;2022-10-16T02:23:20;22.40;;;13.90;;
56960;SDS011;42857;49.768;22.716;2022-10-16T02:25:48;28.30;;;13.93;;
56960;SDS011;42857;49.768;22.716;2022-10-16T02:28:23;21.77;;;13.27;;
56960;SDS011;42857;49.768;22.716;2022-10-16T02:30:57;22.85;;;13.48;;
56960;SDS011;42857;49.768;22.716;2022-10-16T02:33:24;25.08;;;13.30;;
56960;SDS011;42857;49.768;22.716;2022-10-16T02:35:51;20.73;;;12.50;;
56960;SDS011;42857;49.768;22.716;2022-10-16T02:38:18;19.33;;;12.60;;
56960;SDS011;42857;49.768;22.716;2022-10-16T02:40:45;20.33;;;12.85;;
56960;SDS011;42857;49.768;22.716;2022-10-16T02:43:11;22.55;;;13.18;;
56960;SDS011;42857;49.768;22.716;2022-10-16T02:45:37;17.27;;;10.82;;
56960;SDS011;42857;49.768;22.716;2022-10-16T02:48:03;20.48;;;12.55;;
56960;SDS011;42857;49.768;22.716;2022-10-16T02:50:29;17.77;;;11.07;;
56960;SDS011;42857;49.768;22.716;2022-10-16T02:52:55;18.27;;;10.68;;
56960;SDS011;42857;49.768;22.716;2022-10-16T02:55:21;18.70;;;10.43;;
56960;SDS011;42857;49.768;22.716;2022-10-16T02:57:47;21.27;;;9.85;;
56960;SDS011;42857;49.768;22.716;2022-10-16T03:00:14;15.30;;;9.57;;
56960;SDS011;42857;49.768;22.716;2022-10-16T03:02:41;15.98;;;9.57;;
56960;SDS011;42857;49.768;22.716;2022-10-16T03:05:07;15.35;;;10.25;;
56960;SDS011;42857;49.768;22.716;2022-10-16T03:07:33;16.83;;;11.18;;
56960;SDS011;42857;49.768;22.716;2022-10-16T03:09:59;17.35;;;10.90;;
56960;SDS011;42857;49.768;22.716;2022-10-16T03:12:26;16.80;;;10.75;;
56960;SDS011;42857;49.768;22.716;2022-10-16T03:14:51;17.92;;;10.48;;
56960;SDS011;42857;49.768;22.716;2022-10-16T03:17:17;16.92;;;10.32;;
56960;SDS011;42857;49.768;22.716;2022-10-16T03:19:44;16.20;;;9.60;;
56960;SDS011;42857;49.768;22.716;2022-10-16T03:22:10;17.88;;;10.55;;
56960;SDS011;42857;49.768;22.716;2022-10-16T03:24:36;15.70;;;10.25;;
56960;SDS011;42857;49.768;22.716;2022-10-16T03:27:02;14.73;;;9.98;;
56960;SDS011;42857;49.768;22.716;2022-10-16T03:29:28;23.38;;;10.48;;
56960;SDS011;42857;49.768;22.716;2022-10-16T03:31:54;14.50;;;9.63;;
56960;SDS011;42857;49.768;22.716;2022-10-16T03:34:20;16.35;;;9.75;;
56960;SDS011;42857;49.768;22.716;2022-10-16T03:36:47;17.42;;;9.48;;
56960;SDS011;42857;49.768;22.716;2022-10-16T03:39:13;15.30;;;9.32;;
56960;SDS011;42857;49.768;22.716;2022-10-16T03:41:39;15.30;;;9.88;;
56960;SDS011;42857;49.768;22.716;2022-10-16T03:44:05;16.60;;;9.93;;
56960;SDS011;42857;49.768;22.716;2022-10-16T03:46:31;18.13;;;9.93;;
56960;SDS011;42857;49.768;22.716;2022-10-16T03:48:57;16.85;;;9.27;;
56960;SDS011;42857;49.768;22.716;2022-10-16T03:51:23;17.45;;;11.10;;
56960;SDS011;42857;49.768;22.716;2022-10-16T03:53:49;15.70;;;10.82;;
56960;SDS011;42857;49.768;22.716;2022-10-16T03:56:15;18.52;;;11.25;;
56960;SDS011;42857;49.768;22.716;2022-10-16T03:58:41;18.13;;;12.25;;
56960;SDS011;42857;49.768;22.716;2022-10-16T04:01:07;27.60;;;15.70;;
56960;SDS011;42857;49.768;22.716;2022-10-16T04:03:33;16.25;;;10.70;;
56960;SDS011;42857;49.768;22.716;2022-10-16T04:05:59;17.52;;;12.00;;
56960;SDS011;42857;49.768;22.716;2022-10-16T04:08:25;20.42;;;11.48;;
56960;SDS011;42857;49.768;22.716;2022-10-16T04:10:51;17.85;;;11.45;;
56960;SDS011;42857;49.768;22.716;2022-10-16T04:13:17;17.88;;;10.30;;
56960;SDS011;42857;49.768;22.716;2022-10-16T04:15:44;15.43;;;11.27;;
56960;SDS011;42857;49.768;22.716;2022-10-16T04:18:10;13.60;;;9.98;;
56960;SDS011;42857;49.768;22.716;2022-10-16T04:20:36;17.60;;;10.30;;
56960;SDS011;42857;49.768;22.716;2022-10-16T04:23:02;19.33;;;10.77;;
56960;SDS011;42857;49.768;22.716;2022-10-16T04:25:28;16.92;;;11.40;;
56960;SDS011;42857;49.768;22.716;2022-10-16T04:27:54;15.35;;;11.57;;
56960;SDS011;42857;49.768;22.716;2022-10-16T04:30:20;17.67;;;11.70;;
56960;SDS011;42857;49.768;22.716;2022-10-16T04:32:50;18.05;;;12.60;;
56960;SDS011;42857;49.768;22.716;2022-10-16T04:35:16;15.35;;;10.48;;
56960;SDS011;42857;49.768;22.716;2022-10-16T04:37:43;15.77;;;10.05;;
56960;SDS011;42857;49.768;22.716;2022-10-16T04:40:09;18.20;;;11.02;;
56960;SDS011;42857;49.768;22.716;2022-10-16T04:42:35;14.55;;;9.75;;
56960;SDS011;42857;49.768;22.716;2022-10-16T04:45:00;16.27;;;11.27;;
56960;SDS011;42857;49.768;22.716;2022-10-16T04:47:26;20.38;;;13.85;;
56960;SDS011;42857;49.768;22.716;2022-10-16T04:49:52;17.00;;;10.55;;
56960;SDS011;42857;49.768;22.716;2022-10-16T04:52:18;19.98;;;10.80;;
56960;SDS011;42857;49.768;22.716;2022-10-16T04:54:46;17.10;;;10.38;;
56960;SDS011;42857;49.768;22.716;2022-10-16T04:57:12;20.08;;;13.20;;
56960;SDS011;42857;49.768;22.716;2022-10-16T04:59:38;18.00;;;12.40;;
56960;SDS011;42857;49.768;22.716;2022-10-16T05:02:04;18.05;;;11.68;;
56960;SDS011;42857;49.768;22.716;2022-10-16T05:04:30;16.50;;;11.30;;
56960;SDS011;42857;49.768;22.716;2022-10-16T05:06:56;17.80;;;10.45;;
56960;SDS011;42857;49.768;22.716;2022-10-16T05:09:22;14.68;;;9.57;;
56960;SDS011;42857;49.768;22.716;2022-10-16T05:11:48;16.20;;;10.60;;
56960;SDS011;42857;49.768;22.716;2022-10-16T05:14:14;19.38;;;10.20;;
56960;SDS011;42857;49.768;22.716;2022-10-16T05:16:40;17.33;;;10.40;;
56960;SDS011;42857;49.768;22.716;2022-10-16T05:19:06;14.40;;;9.93;;
56960;SDS011;42857;49.768;22.716;2022-10-16T05:21:32;12.88;;;8.95;;
56960;SDS011;42857;49.768;22.716;2022-10-16T05:23:58;15.90;;;9.00;;
56960;SDS011;42857;49.768;22.716;2022-10-16T05:26:24;13.95;;;9.30;;
56960;SDS011;42857;49.768;22.716;2022-10-16T05:28:50;14.30;;;9.82;;
56960;SDS011;42857;49.768;22.716;2022-10-16T05:31:16;17.42;;;9.25;;
56960;SDS011;42857;49.768;22.716;2022-10-16T05:33:42;15.27;;;9.73;;
56960;SDS011;42857;49.768;22.716;2022-10-16T05:36:09;17.48;;;9.70;;
56960;SDS011;42857;49.768;22.716;2022-10-16T05:38:36;15.48;;;10.23;;
56960;SDS011;42857;49.768;22.716;2022-10-16T05:41:02;17.85;;;10.00;;
56960;SDS011;42857;49.768;22.716;2022-10-16T05:43:28;15.32;;;9.80;;
56960;SDS011;42857;49.768;22.716;2022-10-16T05:45:58;21.75;;;10.85;;
56960;SDS011;42857;49.768;22.716;2022-10-16T05:48:25;24.27;;;10.60;;
56960;SDS011;42857;49.768;22.716;2022-10-16T05:51:00;15.15;;;9.50;;
56960;SDS011;42857;49.768;22.716;2022-10-16T05:53:27;16.67;;;10.70;;
56960;SDS011;42857;49.768;22.716;2022-10-16T05:55:54;12.65;;;9.00;;
56960;SDS011;42857;49.768;22.716;2022-10-16T05:58:20;13.25;;;9.00;;
56960;SDS011;42857;49.768;22.716;2022-10-16T06:00:52;14.95;;;8.75;;
56960;SDS011;42857;49.768;22.716;2022-10-16T06:03:18;11.65;;;7.65;;
56960;SDS011;42857;49.768;22.716;2022-10-16T06:05:44;12.25;;;7.30;;
56960;SDS011;42857;49.768;22.716;2022-10-16T06:08:10;12.82;;;8.05;;
56960;SDS011;42857;49.768;22.716;2022-10-16T06:10:36;13.68;;;6.97;;
56960;SDS011;42857;49.768;22.716;2022-10-16T06:13:02;11.02;;;7.15;;
56960;SDS011;42857;49.768;22.716;2022-10-16T06:15:28;10.57;;;7.72;;
56960;SDS011;42857;49.768;22.716;2022-10-16T06:17:54;8.30;;;6.32;;
56960;SDS011;42857;49.768;22.716;2022-10-16T06:20:20;8.20;;;5.93;;
56960;SDS011;42857;49.768;22.716;2022-10-16T06:22:46;10.20;;;6.25;;
56960;SDS011;42857;49.768;22.716;2022-10-16T06:25:12;10.00;;;6.07;;
56960;SDS011;42857;49.768;22.716;2022-10-16T06:27:41;7.88;;;5.55;;
56960;SDS011;42857;49.768;22.716;2022-10-16T06:30:07;9.05;;;6.13;;
56960;SDS011;42857;49.768;22.716;2022-10-16T06:32:33;8.98;;;5.95;;
56960;SDS011;42857;49.768;22.716;2022-10-16T06:34:59;11.50;;;6.28;;
56960;SDS011;42857;49.768;22.716;2022-10-16T06:37:26;8.80;;;6.25;;
56960;SDS011;42857;49.768;22.716;2022-10-16T06:39:52;7.20;;;5.72;;
56960;SDS011;42857;49.768;22.716;2022-10-16T06:42:18;8.02;;;6.03;;
56960;SDS011;42857;49.768;22.716;2022-10-16T06:44:44;9.55;;;7.15;;
56960;SDS011;42857;49.768;22.716;2022-10-16T06:47:10;9.55;;;6.40;;
56960;SDS011;42857;49.768;22.716;2022-10-16T06:49:36;12.65;;;7.75;;
56960;SDS011;42857;49.768;22.716;2022-10-16T06:52:02;10.73;;;7.38;;
56960;SDS011;42857;49.768;22.716;2022-10-16T06:54:29;6.10;;;5.07;;
56960;SDS011;42857;49.768;22.716;2022-10-16T06:56:55;6.57;;;5.50;;
56960;SDS011;42857;49.768;22.716;2022-10-16T06:59:21;8.48;;;5.40;;
56960;SDS011;42857;49.768;22.716;2022-10-16T07:01:47;8.45;;;5.45;;
56960;SDS011;42857;49.768;22.716;2022-10-16T07:04:13;6.72;;;5.43;;
56960;SDS011;42857;49.768;22.716;2022-10-16T07:06:39;10.45;;;5.15;;
56960;SDS011;42857;49.768;22.716;2022-10-16T07:09:06;8.57;;;5.53;;
56960;SDS011;42857;49.768;22.716;2022-10-16T07:11:33;8.50;;;4.80;;
56960;SDS011;42857;49.768;22.716;2022-10-16T07:13:59;5.55;;;4.93;;
56960;SDS011;42857;49.768;22.716;2022-10-16T07:16:26;7.70;;;4.95;;
56960;SDS011;42857;49.768;22.716;2022-10-16T07:18:58;7.43;;;4.90;;
56960;SDS011;42857;49.768;22.716;2022-10-16T07:21:28;8.68;;;5.07;;
56960;SDS011;42857;49.768;22.716;2022-10-16T07:23:56;6.93;;;5.07;;
56960;SDS011;42857;49.768;22.716;2022-10-16T07:26:23;6.75;;;5.38;;
56960;SDS011;42857;49.768;22.716;2022-10-16T07:28:49;6.22;;;4.90;;
56960;SDS011;42857;49.768;22.716;2022-10-16T07:31:15;7.00;;;5.53;;
56960;SDS011;42857;49.768;22.716;2022-10-16T07:33:42;6.53;;;4.85;;
56960;SDS011;42857;49.768;22.716;2022-10-16T07:36:09;6.78;;;4.93;;
56960;SDS011;42857;49.768;22.716;2022-10-16T07:38:35;6.72;;;4.95;;
56960;SDS011;42857;49.768;22.716;2022-10-16T07:41:06;6.18;;;4.55;;
56960;SDS011;42857;49.768;22.716;2022-10-16T07:43:32;6.20;;;4.75;;
56960;SDS011;42857;49.768;22.716;2022-10-16T07:45:59;5.80;;;4.50;;
56960;SDS011;42857;49.768;22.716;2022-10-16T07:48:29;9.88;;;4.55;;
56960;SDS011;42857;49.768;22.716;2022-10-16T07:51:02;6.72;;;5.05;;
56960;SDS011;42857;49.768;22.716;2022-10-16T07:53:29;7.60;;;5.40;;
56960;SDS011;42857;49.768;22.716;2022-10-16T07:56:02;6.57;;;5.10;;
56960;SDS011;42857;49.768;22.716;2022-10-16T07:58:29;11.48;;;6.00;;
56960;SDS011;42857;49.768;22.716;2022-10-16T08:00:55;6.20;;;4.55;;
56960;SDS011;42857;49.768;22.716;2022-10-16T08:03:22;6.38;;;5.03;;
56960;SDS011;42857;49.768;22.716;2022-10-16T08:05:48;10.63;;;4.60;;
56960;SDS011;42857;49.768;22.716;2022-10-16T08:08:15;5.55;;;4.32;;
56960;SDS011;42857;49.768;22.716;2022-10-16T08:10:41;6.57;;;4.97;;
56960;SDS011;42857;49.768;22.716;2022-10-16T08:13:07;5.18;;;3.88;;
56960;SDS011;42857;49.768;22.716;2022-10-16T08:15:33;5.80;;;4.53;;
56960;SDS011;42857;49.768;22.716;2022-10-16T08:18:00;7.45;;;4.68;;
56960;SDS011;42857;49.768;22.716;2022-10-16T08:20:27;6.57;;;4.88;;
56960;SDS011;42857;49.768;22.716;2022-10-16T08:22:53;6.40;;;4.45;;
56960;SDS011;42857;49.768;22.716;2022-10-16T08:25:20;7.20;;;4.35;;
56960;SDS011;42857;49.768;22.716;2022-10-16T08:27:47;5.53;;;4.20;;
56960;SDS011;42857;49.768;22.716;2022-10-16T08:30:13;8.65;;;3.97;;
56960;SDS011;42857;49.768;22.716;2022-10-16T08:32:39;10.73;;;4.18;;
56960;SDS011;42857;49.768;22.716;2022-10-16T08:35:06;5.05;;;4.15;;
56960;SDS011;42857;49.768;22.716;2022-10-16T08:37:33;9.75;;;4.55;;
56960;SDS011;42857;49.768;22.716;2022-10-16T08:39:59;5.90;;;4.50;;
56960;SDS011;42857;49.768;22.716;2022-10-16T08:45:13;5.38;;;3.92;;
56960;SDS011;42857;49.768;22.716;2022-10-16T08:47:45;7.10;;;4.53;;
56960;SDS011;42857;49.768;22.716;2022-10-16T08:50:17;7.75;;;4.45;;
56960;SDS011;42857;49.768;22.716;2022-10-16T08:52:44;5.63;;;4.00;;
56960;SDS011;42857;49.768;22.716;2022-10-16T08:55:22;7.10;;;4.57;;
56960;SDS011;42857;49.768;22.716;2022-10-16T08:57:50;5.60;;;4.20;;
56960;SDS011;42857;49.768;22.716;2022-10-16T09:00:16;4.82;;;4.07;;
56960;SDS011;42857;49.768;22.716;2022-10-16T09:02:49;6.28;;;3.97;;
56960;SDS011;42857;49.768;22.716;2022-10-16T09:05:19;5.90;;;4.15;;
56960;SDS011;42857;49.768;22.716;2022-10-16T09:13:01;4.28;;;3.88;;
56960;SDS011;42857;49.768;22.716;2022-10-16T09:15:32;4.95;;;4.20;;
56960;SDS011;42857;49.768;22.716;2022-10-16T09:18:09;5.00;;;4.18;;
56960;SDS011;42857;49.768;22.716;2022-10-16T09:20:57;5.25;;;3.90;;
56960;SDS011;42857;49.768;22.716;2022-10-16T09:23:29;6.20;;;4.07;;
56960;SDS011;42857;49.768;22.716;2022-10-16T09:25:55;4.63;;;3.67;;
56960;SDS011;42857;49.768;22.716;2022-10-16T09:28:22;4.50;;;3.50;;
56960;SDS011;42857;49.768;22.716;2022-10-16T09:30:48;7.32;;;4.57;;
56960;SDS011;42857;49.768;22.716;2022-10-16T09:33:14;5.82;;;4.38;;
56960;SDS011;42857;49.768;22.716;2022-10-16T09:35:45;5.40;;;3.92;;
56960;SDS011;42857;49.768;22.716;2022-10-16T09:38:21;8.07;;;5.50;;
56960;SDS011;42857;49.768;22.716;2022-10-16T09:40:47;5.85;;;3.78;;
56960;SDS011;42857;49.768;22.716;2022-10-16T09:46:06;6.75;;;4.63;;
56960;SDS011;42857;49.768;22.716;2022-10-16T09:48:37;4.75;;;4.05;;
56960;SDS011;42857;49.768;22.716;2022-10-16T09:51:04;7.40;;;4.78;;
56960;SDS011;42857;49.768;22.716;2022-10-16T09:53:43;5.05;;;3.88;;
56960;SDS011;42857;49.768;22.716;2022-10-16T09:56:10;5.18;;;3.47;;
56960;SDS011;42857;49.768;22.716;2022-10-16T09:58:41;5.45;;;4.45;;
56960;SDS011;42857;49.768;22.716;2022-10-16T10:01:11;6.50;;;4.55;;
56960;SDS011;42857;49.768;22.716;2022-10-16T10:03:39;6.30;;;4.38;;
56960;SDS011;42857;49.768;22.716;2022-10-16T10:06:27;4.70;;;3.78;;
56960;SDS011;42857;49.768;22.716;2022-10-16T10:14:26;9.32;;;4.65;;
56960;SDS011;42857;49.768;22.716;2022-10-16T10:22:25;6.30;;;4.28;;
56960;SDS011;42857;49.768;22.716;2022-10-16T10:24:55;5.43;;;4.22;;
56960;SDS011;42857;49.768;22.716;2022-10-16T10:27:21;4.00;;;3.60;;
56960;SDS011;42857;49.768;22.716;2022-10-16T10:32:39;8.13;;;4.22;;
56960;SDS011;42857;49.768;22.716;2022-10-16T10:40:18;4.30;;;3.90;;
56960;SDS011;42857;49.768;22.716;2022-10-16T10:45:18;5.28;;;4.03;;
56960;SDS011;42857;49.768;22.716;2022-10-16T10:48:10;3.92;;;3.35;;
56960;SDS011;42857;49.768;22.716;2022-10-16T10:53:09;4.05;;;3.45;;
56960;SDS011;42857;49.768;22.716;2022-10-16T10:55:43;5.60;;;3.60;;
56960;SDS011;42857;49.768;22.716;2022-10-16T10:58:19;3.65;;;3.33;;
56960;SDS011;42857;49.768;22.716;2022-10-16T11:03:24;5.72;;;3.90;;
56960;SDS011;42857;49.768;22.716;2022-10-16T11:05:56;5.78;;;3.55;;
56960;SDS011;42857;49.768;22.716;2022-10-16T11:08:40;6.45;;;3.55;;
56960;SDS011;42857;49.768;22.716;2022-10-16T11:11:11;4.63;;;3.35;;
56960;SDS011;42857;49.768;22.716;2022-10-16T11:13:53;4.60;;;3.95;;
56960;SDS011;42857;49.768;22.716;2022-10-16T11:16:40;7.80;;;4.07;;
56960;SDS011;42857;49.768;22.716;2022-10-16T11:21:39;5.70;;;3.95;;
56960;SDS011;42857;49.768;22.716;2022-10-16T11:26:47;4.20;;;3.22;;
56960;SDS011;42857;49.768;22.716;2022-10-16T11:29:16;7.00;;;3.60;;
56960;SDS011;42857;49.768;22.716;2022-10-16T11:31:46;7.10;;;3.92;;
56960;SDS011;42857;49.768;22.716;2022-10-16T11:34:17;4.15;;;3.67;;
56960;SDS011;42857;49.768;22.716;2022-10-16T11:39:31;3.90;;;3.50;;
56960;SDS011;42857;49.768;22.716;2022-10-16T11:42:10;7.78;;;3.70;;
56960;SDS011;42857;49.768;22.716;2022-10-16T11:47:22;5.55;;;3.85;;
56960;SDS011;42857;49.768;22.716;2022-10-16T11:49:50;7.15;;;4.32;;
56960;SDS011;42857;49.768;22.716;2022-10-16T11:52:22;5.78;;;3.38;;
56960;SDS011;42857;49.768;22.716;2022-10-16T11:54:54;6.93;;;4.00;;
56960;SDS011;42857;49.768;22.716;2022-10-16T11:57:26;6.03;;;3.65;;
56960;SDS011;42857;49.768;22.716;2022-10-16T12:02:44;4.30;;;3.90;;
56960;SDS011;42857;49.768;22.716;2022-10-16T12:08:02;5.65;;;3.72;;
56960;SDS011;42857;49.768;22.716;2022-10-16T12:10:30;7.22;;;3.88;;
56960;SDS011;42857;49.768;22.716;2022-10-16T12:13:02;5.10;;;3.70;;
56960;SDS011;42857;49.768;22.716;2022-10-16T12:15:33;5.20;;;3.47;;
56960;SDS011;42857;49.768;22.716;2022-10-16T12:17:59;5.85;;;4.28;;
56960;SDS011;42857;49.768;22.716;2022-10-16T12:20:27;7.88;;;4.00;;
56960;SDS011;42857;49.768;22.716;2022-10-16T12:22:56;5.80;;;4.00;;
56960;SDS011;42857;49.768;22.716;2022-10-16T12:30:34;6.43;;;4.53;;
56960;SDS011;42857;49.768;22.716;2022-10-16T12:33:05;4.72;;;4.00;;
56960;SDS011;42857;49.768;22.716;2022-10-16T12:35:32;5.30;;;4.30;;
56960;SDS011;42857;49.768;22.716;2022-10-16T12:38:14;4.47;;;3.63;;
56960;SDS011;42857;49.768;22.716;2022-10-16T12:40:41;5.20;;;3.85;;
56960;SDS011;42857;49.768;22.716;2022-10-16T12:43:13;5.28;;;4.07;;
56960;SDS011;42857;49.768;22.716;2022-10-16T12:45:58;4.85;;;4.30;;
56960;SDS011;42857;49.768;22.716;2022-10-16T12:48:24;6.43;;;4.15;;
56960;SDS011;42857;49.768;22.716;2022-10-16T12:50:50;5.32;;;4.25;;
56960;SDS011;42857;49.768;22.716;2022-10-16T12:53:17;4.78;;;3.35;;
56960;SDS011;42857;49.768;22.716;2022-10-16T12:55:47;5.45;;;4.20;;
56960;SDS011;42857;49.768;22.716;2022-10-16T12:58:19;5.65;;;4.28;;
56960;SDS011;42857;49.768;22.716;2022-10-16T13:00:56;4.10;;;3.67;;
56960;SDS011;42857;49.768;22.716;2022-10-16T13:05:55;6.50;;;3.85;;
56960;SDS011;42857;49.768;22.716;2022-10-16T13:13:32;4.43;;;4.00;;
56960;SDS011;42857;49.768;22.716;2022-10-16T13:18:30;6.40;;;3.75;;
56960;SDS011;42857;49.768;22.716;2022-10-16T13:21:04;4.40;;;3.85;;
56960;SDS011;42857;49.768;22.716;2022-10-16T13:23:47;6.45;;;3.80;;
56960;SDS011;42857;49.768;22.716;2022-10-16T13:26:18;6.78;;;4.20;;
56960;SDS011;42857;49.768;22.716;2022-10-16T13:28:48;4.28;;;3.85;;
56960;SDS011;42857;49.768;22.716;2022-10-16T13:31:17;4.72;;;4.22;;
56960;SDS011;42857;49.768;22.716;2022-10-16T13:33:45;6.10;;;4.40;;
56960;SDS011;42857;49.768;22.716;2022-10-16T13:36:20;5.68;;;4.10;;
56960;SDS011;42857;49.768;22.716;2022-10-16T13:38:46;5.28;;;3.90;;
56960;SDS011;42857;49.768;22.716;2022-10-16T13:41:14;6.20;;;3.97;;
56960;SDS011;42857;49.768;22.716;2022-10-16T13:43:45;6.28;;;3.85;;
56960;SDS011;42857;49.768;22.716;2022-10-16T13:46:12;4.68;;;4.00;;
56960;SDS011;42857;49.768;22.716;2022-10-16T13:48:38;5.25;;;4.13;;
56960;SDS011;42857;49.768;22.716;2022-10-16T13:51:05;5.15;;;3.50;;
56960;SDS011;42857;49.768;22.716;2022-10-16T13:53:33;5.05;;;4.07;;
56960;SDS011;42857;49.768;22.716;2022-10-16T13:55:59;9.18;;;4.18;;
56960;SDS011;42857;49.768;22.716;2022-10-16T13:58:25;6.68;;;4.00;;
56960;SDS011;42857;49.768;22.716;2022-10-16T14:03:23;5.68;;;3.83;;
56960;SDS011;42857;49.768;22.716;2022-10-16T14:05:51;4.25;;;3.65;;
56960;SDS011;42857;49.768;22.716;2022-10-16T14:08:18;5.85;;;4.00;;
56960;SDS011;42857;49.768;22.716;2022-10-16T14:10:47;5.32;;;3.90;;
56960;SDS011;42857;49.768;22.716;2022-10-16T14:13:15;6.13;;;3.53;;
56960;SDS011;42857;49.768;22.716;2022-10-16T14:15:45;4.65;;;3.63;;
56960;SDS011;42857;49.768;22.716;2022-10-16T14:18:18;7.25;;;4.10;;
56960;SDS011;42857;49.768;22.716;2022-10-16T14:20:45;5.00;;;3.92;;
56960;SDS011;42857;49.768;22.716;2022-10-16T14:25:51;6.30;;;3.70;;
56960;SDS011;42857;49.768;22.716;2022-10-16T14:28:21;5.78;;;3.72;;
56960;SDS011;42857;49.768;22.716;2022-10-16T14:30:51;4.18;;;3.75;;
56960;SDS011;42857;49.768;22.716;2022-10-16T14:33:20;4.15;;;3.60;;
56960;SDS011;42857;49.768;22.716;2022-10-16T14:35:46;6.00;;;3.97;;
56960;SDS011;42857;49.768;22.716;2022-10-16T14:38:18;5.82;;;3.90;;
56960;SDS011;42857;49.768;22.716;2022-10-16T14:40:48;5.90;;;4.28;;
56960;SDS011;42857;49.768;22.716;2022-10-16T14:43:16;5.85;;;3.80;;
56960;SDS011;42857;49.768;22.716;2022-10-16T14:45:49;10.90;;;6.72;;
56960;SDS011;42857;49.768;22.716;2022-10-16T14:48:16;5.03;;;3.63;;
56960;SDS011;42857;49.768;22.716;2022-10-16T14:50:42;6.22;;;3.38;;
56960;SDS011;42857;49.768;22.716;2022-10-16T14:53:11;15.85;;;8.90;;
56960;SDS011;42857;49.768;22.716;2022-10-16T14:55:37;5.78;;;4.32;;
56960;SDS011;42857;49.768;22.716;2022-10-16T14:58:04;14.20;;;8.25;;
56960;SDS011;42857;49.768;22.716;2022-10-16T15:00:30;28.45;;;17.10;;
56960;SDS011;42857;49.768;22.716;2022-10-16T15:02:56;7.00;;;4.95;;
56960;SDS011;42857;49.768;22.716;2022-10-16T15:05:23;9.68;;;7.20;;
56960;SDS011;42857;49.768;22.716;2022-10-16T15:07:52;7.35;;;5.00;;
56960;SDS011;42857;49.768;22.716;2022-10-16T15:10:18;5.07;;;3.88;;
56960;SDS011;42857;49.768;22.716;2022-10-16T15:12:45;5.65;;;4.05;;
56960;SDS011;42857;49.768;22.716;2022-10-16T15:17:59;6.57;;;3.80;;
56960;SDS011;42857;49.768;22.716;2022-10-16T15:20:28;8.02;;;4.50;;
56960;SDS011;42857;49.768;22.716;2022-10-16T15:22:56;5.32;;;3.67;;
56960;SDS011;42857;49.768;22.716;2022-10-16T15:27:52;11.07;;;5.60;;
56960;SDS011;42857;49.768;22.716;2022-10-16T15:30:18;9.27;;;6.97;;
56960;SDS011;42857;49.768;22.716;2022-10-16T15:32:46;6.10;;;5.32;;
56960;SDS011;42857;49.768;22.716;2022-10-16T15:35:12;8.38;;;4.03;;
56960;SDS011;42857;49.768;22.716;2022-10-16T15:37:38;6.93;;;4.55;;
56960;SDS011;42857;49.768;22.716;2022-10-16T15:40:04;7.82;;;4.25;;
56960;SDS011;42857;49.768;22.716;2022-10-16T15:42:34;7.93;;;4.18;;
56960;SDS011;42857;49.768;22.716;2022-10-16T15:45:00;7.72;;;4.03;;
56960;SDS011;42857;49.768;22.716;2022-10-16T15:47:26;5.60;;;4.32;;
56960;SDS011;42857;49.768;22.716;2022-10-16T15:49:53;7.97;;;4.35;;
56960;SDS011;42857;49.768;22.716;2022-10-16T15:52:20;4.40;;;3.80;;
56960;SDS011;42857;49.768;22.716;2022-10-16T15:54:54;6.00;;;3.72;;
56960;SDS011;42857;49.768;22.716;2022-10-16T15:57:21;4.82;;;3.35;;
56960;SDS011;42857;49.768;22.716;2022-10-16T15:59:49;6.20;;;4.38;;